Time,TemperatureF,DewpointF,PressureIn,WindDirection,WindDirectionDegrees,WindSpeedMPH,WindSpeedGustMPH,Humidity,HourlyPrecipIn,Conditions,Clouds,dailyrainin,SoftwareType,DateUTC
2013-09-03 00:11:00,50.3,50.0,30.03,West,265,0.0,0.0,97,0.00,,,0.00,weatherlink.com 1.10,2013-09-03 05:11:00,
2013-09-03 00:26:00,50.1,49.0,30.03,West,266,0.0,0.0,97,0.00,,,0.00,weatherlink.com 1.10,2013-09-03 05:26:00,
2013-09-03 00:41:00,49.9,49.0,30.03,West,266,0.0,0.0,97,0.00,,,0.00,weatherlink.com 1.10,2013-09-03 05:41:00,
2013-09-03 00:56:00,49.9,49.0,30.03,West,265,0.0,0.0,97,0.00,,,0.00,weatherlink.com 1.10,2013-09-03 05:56:00,
2013-09-03 01:11:00,49.6,49.0,30.03,West,266,0.0,0.0,97,0.00,,,0.00,weatherlink.com 1.10,2013-09-03 06:11:00,
2013-09-03 01:26:00,49.3,49.0,30.03,West,265,0.0,0.0,98,0.00,,,0.00,weatherlink.com 1.10,2013-09-03 06:26:00,
2013-09-03 01:41:00,49.2,49.0,30.03,West,265,0.0,0.0,98,0.00,,,0.00,weatherlink.com 1.10,2013-09-03 06:41:00,
2013-09-03 01:56:00,48.8,48.0,30.03,West,265,0.0,0.0,97,0.00,,,0.00,weatherlink.com 1.10,2013-09-03 06:56:00,
2013-09-03 02:11:00,48.9,48.0,30.03,West,265,0.0,0.0,98,0.00,,,0.00,weatherlink.com 1.10,2013-09-03 07:11:00,
2013-09-03 02:26:00,48.7,48.0,30.03,West,266,0.0,0.0,98,0.00,,,0.00,weatherlink.com 1.10,2013-09-03 07:26:00,
2013-09-03 02:41:00,48.7,48.0,30.04,West,266,0.0,0.0,98,0.00,,,0.00,weatherlink.com 1.10,2013-09-03 07:41:00,
2013-09-03 02:56:00,48.3,48.0,30.04,West,266,0.0,0.0,98,0.00,,,0.00,weatherlink.com 1.10,2013-09-03 07:56:00,
2013-09-03 03:11:00,48.0,48.0,30.04,West,265,0.0,0.0,98,0.00,,,0.00,weatherlink.com 1.10,2013-09-03 08:11:00,
2013-09-03 03:26:00,47.9,47.0,30.03,West,265,0.0,0.0,98,0.00,,,0.00,weatherlink.com 1.10,2013-09-03 08:26:00,
2013-09-03 03:41:00,47.6,47.0,30.04,West,265,0.0,0.0,98,0.00,,,0.00,weatherlink.com 1.10,2013-09-03 08:41:00,
2013-09-03 03:56:00,47.5,47.0,30.04,West,266,0.0,0.0,98,0.00,,,0.00,weatherlink.com 1.10,2013-09-03 08:56:00,
2013-09-03 04:11:00,47.3,47.0,30.03,West,265,0.0,0.0,98,0.00,,,0.00,weatherlink.com 1.10,2013-09-03 09:11:00,
2013-09-03 04:26:00,47.2,47.0,30.03,West,265,0.0,0.0,98,0.00,,,0.00,weatherlink.com 1.10,2013-09-03 09:26:00,
2013-09-03 04:41:00,47.1,47.0,30.04,West,265,0.0,0.0,99,0.00,,,0.00,weatherlink.com 1.10,2013-09-03 09:41:00,
2013-09-03 04:56:00,47.3,47.0,30.04,West,266,0.0,0.0,99,0.00,,,0.00,weatherlink.com 1.10,2013-09-03 09:56:00,
2013-09-03 05:11:00,47.0,47.0,30.05,West,266,0.0,0.0,98,0.00,,,0.00,weatherlink.com 1.10,2013-09-03 10:11:00,
2013-09-03 05:26:00,46.8,47.0,30.05,West,265,0.0,0.0,99,0.00,,,0.00,weatherlink.com 1.10,2013-09-03 10:26:00,
2013-09-03 05:41:00,46.7,46.0,30.05,West,266,0.0,0.0,98,0.00,,,0.00,weatherlink.com 1.10,2013-09-03 10:41:00,
2013-09-03 05:56:00,46.9,47.0,30.05,West,265,0.0,0.0,99,0.00,,,0.00,weatherlink.com 1.10,2013-09-03 10:56:00,
2013-09-03 06:11:00,46.6,46.0,30.06,West,266,0.0,0.0,98,0.00,,,0.00,weatherlink.com 1.10,2013-09-03 11:11:00,
2013-09-03 06:26:00,46.5,46.0,30.06,West,266,0.0,0.0,99,0.00,,,0.00,weatherlink.com 1.10,2013-09-03 11:26:00,
2013-09-03 06:41:00,46.4,46.0,30.07,West,265,0.0,0.0,99,0.00,,,0.00,weatherlink.com 1.10,2013-09-03 11:41:00,
2013-09-03 06:56:00,46.9,47.0,30.07,West,266,0.0,0.0,99,0.00,,,0.00,weatherlink.com 1.10,2013-09-03 11:56:00,
2013-09-03 07:11:00,47.7,48.0,30.07,West,266,0.0,0.0,99,0.00,,,0.00,weatherlink.com 1.10,2013-09-03 12:11:00,
2013-09-03 07:26:00,48.6,48.0,30.07,West,266,0.0,0.0,99,0.00,,,0.00,weatherlink.com 1.10,2013-09-03 12:26:00,
2013-09-03 07:41:00,50.2,50.0,30.07,West,266,0.0,0.0,99,0.00,,,0.00,weatherlink.com 1.10,2013-09-03 12:41:00,
2013-09-03 07:57:00,51.9,52.0,30.07,WNW,293,0.0,0.0,99,0.00,,,0.00,weatherlink.com 1.10,2013-09-03 12:57:00,
2013-09-03 08:12:00,52.9,53.0,30.08,East,84,0.0,2.0,100,0.00,,,0.00,weatherlink.com 1.10,2013-09-03 13:12:00,
2013-09-03 08:27:00,53.9,54.0,30.07,NE,56,0.0,1.0,100,0.00,,,0.00,weatherlink.com 1.10,2013-09-03 13:27:00,
2013-09-03 08:42:00,54.9,55.0,30.07,South,176,0.0,2.0,100,0.00,,,0.00,weatherlink.com 1.10,2013-09-03 13:42:00,
2013-09-03 08:57:00,57.0,57.0,30.08,SE,135,0.0,1.0,100,0.00,,,0.00,weatherlink.com 1.10,2013-09-03 13:57:00,
2013-09-03 09:12:00,58.9,59.0,30.07,West,274,0.0,1.0,99,0.00,,,0.00,weatherlink.com 1.10,2013-09-03 14:12:00,
2013-09-03 09:27:00,60.0,58.0,30.08,NW,306,0.0,3.0,93,0.00,,,0.00,weatherlink.com 1.10,2013-09-03 14:27:00,
2013-09-03 09:42:00,62.0,58.0,30.08,WNW,295,1.0,3.0,86,0.00,,,0.00,weatherlink.com 1.10,2013-09-03 14:42:00,
2013-09-03 09:57:00,63.6,57.0,30.08,NW,315,0.0,4.0,79,0.00,,,0.00,weatherlink.com 1.10,2013-09-03 14:57:00,
2013-09-03 10:12:00,65.4,58.0,30.08,WNW,285,0.0,6.0,76,0.00,,,0.00,weatherlink.com 1.10,2013-09-03 15:12:00,
2013-09-03 10:27:00,65.9,58.0,30.07,ESE,107,0.0,2.0,76,0.00,,,0.00,weatherlink.com 1.10,2013-09-03 15:27:00,
2013-09-03 10:42:00,66.9,57.0,30.07,South,170,1.0,5.0,70,0.00,,,0.00,weatherlink.com 1.10,2013-09-03 15:42:00,
2013-09-03 10:58:00,67.2,57.0,30.07,WNW,287,1.0,2.0,70,0.00,,,0.00,weatherlink.com 1.10,2013-09-03 15:58:00,
2013-09-03 11:12:00,68.2,57.0,30.07,WSW,240,0.0,3.0,68,0.00,,,0.00,weatherlink.com 1.10,2013-09-03 16:12:00,
2013-09-03 11:27:00,68.3,57.0,30.07,SE,142,0.0,5.0,68,0.00,,,0.00,weatherlink.com 1.10,2013-09-03 16:27:00,
2013-09-03 11:42:00,68.6,57.0,30.06,NNE,24,0.0,3.0,67,0.00,,,0.00,weatherlink.com 1.10,2013-09-03 16:42:00,
2013-09-03 11:57:00,69.3,57.0,30.06,WSW,245,0.0,3.0,66,0.00,,,0.00,weatherlink.com 1.10,2013-09-03 16:57:00,
2013-09-03 12:12:00,70.8,58.0,30.05,NW,311,3.0,3.0,64,0.00,,,0.00,weatherlink.com 1.10,2013-09-03 17:12:00,
2013-09-03 12:27:00,69.4,57.0,30.05,SSW,194,0.0,1.0,66,0.00,,,0.00,weatherlink.com 1.10,2013-09-03 17:27:00,
2013-09-03 12:42:00,70.8,58.0,30.04,SW,219,0.0,2.0,65,0.00,,,0.00,weatherlink.com 1.10,2013-09-03 17:42:00,
2013-09-03 12:57:00,73.5,60.0,30.04,West,273,1.0,4.0,62,0.00,,,0.00,weatherlink.com 1.10,2013-09-03 17:57:00,
2013-09-03 13:13:00,73.3,57.0,30.04,SSE,167,0.0,4.0,58,0.00,,,0.00,weatherlink.com 1.10,2013-09-03 18:13:00,
2013-09-03 13:28:00,73.8,58.0,30.03,SSW,193,0.0,6.0,58,0.00,,,0.00,weatherlink.com 1.10,2013-09-03 18:28:00,
2013-09-03 13:43:00,74.8,55.0,30.03,West,262,0.0,3.0,51,0.00,,,0.00,weatherlink.com 1.10,2013-09-03 18:43:00,
2013-09-03 13:58:00,74.8,58.0,30.02,SW,226,0.0,4.0,56,0.00,,,0.00,weatherlink.com 1.10,2013-09-03 18:58:00,
2013-09-03 14:13:00,75.2,56.0,30.01,WNW,283,1.0,5.0,51,0.00,,,0.00,weatherlink.com 1.10,2013-09-03 19:13:00,
2013-09-03 14:28:00,75.9,57.0,30.01,WNW,285,2.0,4.0,52,0.00,,,0.00,weatherlink.com 1.10,2013-09-03 19:28:00,
2013-09-03 14:43:00,76.4,57.0,30.00,WSW,250,0.0,4.0,52,0.00,,,0.00,weatherlink.com 1.10,2013-09-03 19:43:00,
2013-09-03 14:58:00,75.8,55.0,30.00,West,271,0.0,4.0,49,0.00,,,0.00,weatherlink.com 1.10,2013-09-03 19:58:00,
2013-09-03 15:13:00,75.9,57.0,30.00,NW,307,0.0,4.0,52,0.00,,,0.00,weatherlink.com 1.10,2013-09-03 20:13:00,
2013-09-03 15:29:00,74.2,57.0,29.99,WNW,290,0.0,3.0,55,0.00,,,0.00,weatherlink.com 1.10,2013-09-03 20:29:00,
2013-09-03 15:43:00,74.5,58.0,29.99,SSE,162,0.0,5.0,56,0.00,,,0.00,weatherlink.com 1.10,2013-09-03 20:43:00,
2013-09-03 15:58:00,76.0,58.0,29.99,SE,141,0.0,3.0,54,0.00,,,0.00,weatherlink.com 1.10,2013-09-03 20:58:00,
2013-09-03 16:13:00,76.8,57.0,29.98,WNW,283,3.0,5.0,50,0.00,,,0.00,weatherlink.com 1.10,2013-09-03 21:13:00,
2013-09-03 16:28:00,77.5,57.0,29.98,NW,323,1.0,4.0,50,0.00,,,0.00,weatherlink.com 1.10,2013-09-03 21:28:00,
2013-09-03 16:43:00,78.0,59.0,29.98,WNW,285,0.0,3.0,53,0.00,,,0.00,weatherlink.com 1.10,2013-09-03 21:43:00,
2013-09-03 16:58:00,78.6,58.0,29.99,WNW,289,0.0,3.0,50,0.00,,,0.00,weatherlink.com 1.10,2013-09-03 21:58:00,
2013-09-03 17:13:00,78.4,58.0,29.99,WNW,291,0.0,5.0,49,0.00,,,0.00,weatherlink.com 1.10,2013-09-03 22:13:00,
2013-09-03 17:28:00,78.6,58.0,29.99,West,270,0.0,2.0,50,0.00,,,0.00,weatherlink.com 1.10,2013-09-03 22:28:00,
2013-09-03 17:44:00,77.4,59.0,29.98,NNW,339,0.0,3.0,53,0.00,,,0.00,weatherlink.com 1.10,2013-09-03 22:44:00,
2013-09-03 17:58:00,76.9,58.0,29.98,SE,134,0.0,3.0,53,0.00,,,0.00,weatherlink.com 1.10,2013-09-03 22:58:00,
2013-09-03 18:13:00,77.4,59.0,29.98,WNW,290,0.0,2.0,54,0.00,,,0.00,weatherlink.com 1.10,2013-09-03 23:13:00,
2013-09-03 18:28:00,78.1,60.0,29.98,West,264,0.0,1.0,54,0.00,,,0.00,weatherlink.com 1.10,2013-09-03 23:28:00,
2013-09-03 18:43:00,77.9,60.0,29.97,West,267,0.0,1.0,54,0.00,,,0.00,weatherlink.com 1.10,2013-09-03 23:43:00,
2013-09-03 18:58:00,75.5,60.0,29.97,West,266,0.0,0.0,58,0.00,,,0.00,weatherlink.com 1.10,2013-09-03 23:58:00,
2013-09-03 19:13:00,72.5,59.0,29.97,West,267,0.0,0.0,63,0.00,,,0.00,weatherlink.com 1.10,2013-09-04 00:13:00,
2013-09-03 19:28:00,70.3,59.0,29.97,West,266,0.0,0.0,67,0.00,,,0.00,weatherlink.com 1.10,2013-09-04 00:28:00,
2013-09-03 19:43:00,68.1,59.0,29.97,West,267,0.0,0.0,72,0.00,,,0.00,weatherlink.com 1.10,2013-09-04 00:43:00,
2013-09-03 19:58:00,66.2,59.0,29.97,West,267,0.0,0.0,77,0.00,,,0.00,weatherlink.com 1.10,2013-09-04 00:58:00,
2013-09-03 20:13:00,64.6,58.0,29.97,West,266,0.0,0.0,80,0.00,,,0.00,weatherlink.com 1.10,2013-09-04 01:13:00,
2013-09-03 20:28:00,63.3,58.0,29.98,West,267,0.0,0.0,83,0.00,,,0.00,weatherlink.com 1.10,2013-09-04 01:28:00,
2013-09-03 20:43:00,62.5,58.0,29.98,West,266,0.0,0.0,86,0.00,,,0.00,weatherlink.com 1.10,2013-09-04 01:43:00,
2013-09-03 20:58:00,61.7,58.0,29.98,West,266,0.0,0.0,86,0.00,,,0.00,weatherlink.com 1.10,2013-09-04 01:58:00,
2013-09-03 21:13:00,61.1,58.0,29.98,West,267,0.0,0.0,89,0.00,,,0.00,weatherlink.com 1.10,2013-09-04 02:13:00,
2013-09-03 21:28:00,60.7,58.0,29.98,West,267,0.0,0.0,90,0.00,,,0.00,weatherlink.com 1.10,2013-09-04 02:28:00,
2013-09-03 21:43:00,60.3,58.0,29.98,West,266,0.0,0.0,91,0.00,,,0.00,weatherlink.com 1.10,2013-09-04 02:43:00,
2013-09-03 21:58:00,59.9,58.0,29.98,West,267,0.0,0.0,92,0.00,,,0.00,weatherlink.com 1.10,2013-09-04 02:58:00,
2013-09-03 22:13:00,59.5,57.0,29.98,West,267,0.0,0.0,92,0.00,,,0.00,weatherlink.com 1.10,2013-09-04 03:13:00,
2013-09-03 22:28:00,59.5,58.0,29.98,West,266,0.0,0.0,94,0.00,,,0.00,weatherlink.com 1.10,2013-09-04 03:28:00,
2013-09-03 22:43:00,59.7,58.0,29.99,West,267,0.0,0.0,94,0.00,,,0.00,weatherlink.com 1.10,2013-09-04 03:43:00,
2013-09-03 22:58:00,59.5,58.0,29.99,West,267,0.0,0.0,94,0.00,,,0.00,weatherlink.com 1.10,2013-09-04 03:58:00,
2013-09-03 23:13:00,59.5,58.0,29.98,West,266,0.0,0.0,94,0.00,,,0.00,weatherlink.com 1.10,2013-09-04 04:13:00,
2013-09-03 23:28:00,59.1,57.0,29.98,West,267,0.0,0.0,94,0.00,,,0.00,weatherlink.com 1.10,2013-09-04 04:28:00,
2013-09-03 23:43:00,58.9,58.0,29.99,West,267,0.0,0.0,95,0.00,,,0.00,weatherlink.com 1.10,2013-09-04 04:43:00,
2013-09-03 23:58:00,58.6,57.0,29.98,West,266,0.0,0.0,95,0.00,,,0.00,weatherlink.com 1.10,2013-09-04 04:58:00,